< Cyclone 202216 2022 Season Cyclone 202222 >
Cyclone 202218 (Dovi)
General InformationTrack Information on Google MapsDetailed Wind InformationList of All Images || ResourceGoogle EarthGE AnimationAtom FeedGeoJSON
Detalied Best Track (Time Zone = UTC)
Year Month Day Hour Lat. Long. Pressure (hPa) Wind (kt) Class Image Chart
2022 2 7 00 -19.0 163.6 1004 20 2 Image --
2022 2 7 06 -18.9 164.5 1003 25 2 Image --
2022 2 7 12 -18.9 165.3 1002 25 2 Image --
2022 2 7 18 -18.9 166.1 1001 25 2 Image --
2022 2 8 00 -19.0 167.1 1000 25 2 Image --
2022 2 8 06 -19.0 167.6 1000 30 2 Image --
2022 2 8 12 -19.2 168.4 996 30 2 Image --
2022 2 8 18 -18.9 168.7 991 30 2 Image --
2022 2 9 00 -19.2 168.8 987 35 3 Image --
2022 2 9 06 -19.6 168.9 985 35 3 Image --
2022 2 9 12 -19.9 168.8 986 40 3 Image --
2022 2 9 18 -20.5 168.9 983 45 3 Image --
2022 2 10 00 -21.0 168.8 977 50 4 Image --
2022 2 10 06 -22.1 167.9 975 60 4 Image --
2022 2 10 12 -22.9 166.9 967 70 5 Image --
2022 2 10 18 -23.7 166.5 955 80 5 Image --
2022 2 11 00 -24.9 165.9 942 90 5 Image --
2022 2 11 06 -26.6 166.2 956 80 5 Image --
2022 2 11 12 -28.7 166.1 961 75 5 Image --
2022 2 11 18 -31.7 166.3 970 65 5 Image --
2022 2 12 00 -33.4 166.4 975 60 4 Image --
2022 2 12 06 -34.4 168.1 975 60 4 Image --
2022 2 12 12 -36.2 170.2 980 60 4 Image --
< Cyclone 202216 2022 Season Cyclone 202222 >

Help